PWSweather.com
Personal Weather Stations
Station Observations
ANTHEMNP
Anthem North Parkside, Anthem, AZ 85086

Anthem North ParksideAnthem, AZ 85086

Lat: 33.876464, Lon: -112.13861199999997

Elevation: 1930

Station Type: Davis Vantage Vue with Pro 2 console

http://www.azjerry.com/ANPW/wxindex.php

High Low Average
Temperature 102.4°F39.1°C 78.9°F26.1°C 92.8°F33.8°C
Dew Point 44.0°F6.7°C 14.0°F-10.0°C 33.6°F0.9°C
Winds 5.8 mph 9.3 kmh Calm Calm 2.0 mph SE3.2 kmh SE
Wind Gusts 14.0 mph22.5 kmh 1.0 mph1.6 kmh 5.0 mph8.0 kmh
Humidity 19% 5% 13%
Pressure 29.84 in1010.5 mb 29.84 in1010.5 mb -
Precipitation 0.00 in0.0 mm - -
Hour Temp Dew Point Humidity Winds Wind Gusts Pressure Precip Precip Rate Daily Precip Total
12:00 AM 87.2°F30.7°C 27.0°F-2.8°C 11% Calm Calm 1.0 mph1.6 kmh 29.84 in1010.5 mb 0.00 in0.0 mm 0.00 in0.0 mm 0.00 in0.0 mm
12:10 AM 87.2°F30.7°C 27.0°F-2.8°C 11% Calm Calm 1.0 mph1.6 kmh 29.84 in1010.5 mb 0.00 in0.0 mm 0.00 in0.0 mm 0.00 in0.0 mm
12:20 AM 86.3°F30.2°C 28.0°F-2.2°C 12% Calm Calm 1.0 mph1.6 kmh 29.84 in1010.5 mb 0.00 in0.0 mm 0.00 in0.0 mm 0.00 in0.0 mm
12:30 AM 84.8°F29.3°C 27.0°F-2.8°C 12% 1.4 mph NNE2.3 kmh NNE 2.0 mph3.2 kmh 29.84 in1010.5 mb 0.00 in0.0 mm 0.00 in0.0 mm 0.00 in0.0 mm
12:40 AM 84.8°F29.3°C 29.0°F-1.7°C 13% 0.1 mph NNE0.2 kmh NNE 1.0 mph1.6 kmh 29.84 in1010.5 mb 0.00 in0.0 mm 0.00 in0.0 mm 0.00 in0.0 mm
12:50 AM 83.6°F28.7°C 28.0°F-2.2°C 13% 1.2 mph N1.9 kmh N 2.0 mph3.2 kmh 29.84 in1010.5 mb 0.00 in0.0 mm 0.00 in0.0 mm 0.00 in0.0 mm
01:00 AM 84.5°F29.2°C 27.0°F-2.8°C 12% 0.9 mph NNE1.4 kmh NNE 4.0 mph6.4 kmh 29.84 in1010.5 mb 0.00 in0.0 mm 0.00 in0.0 mm 0.00 in0.0 mm
01:10 AM 84.5°F29.2°C 27.0°F-2.8°C 12% 0.4 mph NNE0.6 kmh NNE 3.0 mph4.8 kmh 29.84 in1010.5 mb 0.00 in0.0 mm 0.00 in0.0 mm 0.00 in0.0 mm
01:20 AM 84.0°F28.9°C 26.0°F-3.3°C 12% 0.1 mph NNE0.2 kmh NNE 2.0 mph3.2 kmh 29.84 in1010.5 mb 0.00 in0.0 mm 0.00 in0.0 mm 0.00 in0.0 mm
01:30 AM 83.2°F28.4°C 27.0°F-2.8°C 13% 0.7 mph N1.1 kmh N 2.0 mph3.2 kmh 29.84 in1010.5 mb 0.00 in0.0 mm 0.00 in0.0 mm 0.00 in0.0 mm
01:40 AM 83.1°F28.4°C 27.0°F-2.8°C 13% 0.8 mph NNE1.3 kmh NNE 2.0 mph3.2 kmh 29.84 in1010.5 mb 0.00 in0.0 mm 0.00 in0.0 mm 0.00 in0.0 mm
01:50 AM 83.2°F28.4°C 27.0°F-2.8°C 13% 2.2 mph NE3.5 kmh NE 4.0 mph6.4 kmh 29.84 in1010.5 mb 0.00 in0.0 mm 0.00 in0.0 mm 0.00 in0.0 mm
02:00 AM 82.7°F28.2°C 29.0°F-1.7°C 14% Calm Calm 1.0 mph1.6 kmh 29.84 in1010.5 mb 0.00 in0.0 mm 0.00 in0.0 mm 0.00 in0.0 mm
02:10 AM 81.8°F27.7°C 28.0°F-2.2°C 14% 0.3 mph N0.5 kmh N 3.0 mph4.8 kmh 29.84 in1010.5 mb 0.00 in0.0 mm 0.00 in0.0 mm 0.00 in0.0 mm
02:20 AM 82.6°F28.1°C 27.0°F-2.8°C 13% 2.6 mph N4.2 kmh N 6.0 mph9.7 kmh 29.84 in1010.5 mb 0.00 in0.0 mm 0.00 in0.0 mm 0.00 in0.0 mm
02:30 AM 82.5°F28.1°C 27.0°F-2.8°C 13% 2.6 mph N4.2 kmh N 5.0 mph8.0 kmh 29.84 in1010.5 mb 0.00 in0.0 mm 0.00 in0.0 mm 0.00 in0.0 mm
02:40 AM 82.3°F27.9°C 27.0°F-2.8°C 13% 2.6 mph NNE4.2 kmh NNE 5.0 mph8.0 kmh 29.84 in1010.5 mb 0.00 in0.0 mm 0.00 in0.0 mm 0.00 in0.0 mm
02:50 AM 82.8°F28.2°C 27.0°F-2.8°C 13% 2.3 mph N3.7 kmh N 5.0 mph8.0 kmh 29.84 in1010.5 mb 0.00 in0.0 mm 0.00 in0.0 mm 0.00 in0.0 mm
03:00 AM 82.1°F27.8°C 27.0°F-2.8°C 13% 1.0 mph NNE1.6 kmh NNE 4.0 mph6.4 kmh 29.84 in1010.5 mb 0.00 in0.0 mm 0.00 in0.0 mm 0.00 in0.0 mm
03:10 AM 81.8°F27.7°C 28.0°F-2.2°C 14% 1.7 mph NE2.7 kmh NE 3.0 mph4.8 kmh 29.84 in1010.5 mb 0.00 in0.0 mm 0.00 in0.0 mm 0.00 in0.0 mm
03:20 AM 82.0°F27.8°C 26.0°F-3.3°C 13% 2.4 mph NNE3.9 kmh NNE 4.0 mph6.4 kmh 29.84 in1010.5 mb 0.00 in0.0 mm 0.00 in0.0 mm 0.00 in0.0 mm
03:30 AM 81.6°F27.6°C 26.0°F-3.3°C 13% 2.6 mph NNE4.2 kmh NNE 4.0 mph6.4 kmh 29.84 in1010.5 mb 0.00 in0.0 mm 0.00 in0.0 mm 0.00 in0.0 mm
03:40 AM 81.2°F27.3°C 28.0°F-2.2°C 14% 2.8 mph N4.5 kmh N 6.0 mph9.7 kmh 29.84 in1010.5 mb 0.00 in0.0 mm 0.00 in0.0 mm 0.00 in0.0 mm
03:50 AM 80.4°F26.9°C 29.0°F-1.7°C 15% 0.9 mph N1.4 kmh N 2.0 mph3.2 kmh 29.84 in1010.5 mb 0.00 in0.0 mm 0.00 in0.0 mm 0.00 in0.0 mm
04:00 AM 80.5°F26.9°C 29.0°F-1.7°C 15% 1.3 mph N2.1 kmh N 3.0 mph4.8 kmh 29.84 in1010.5 mb 0.00 in0.0 mm 0.00 in0.0 mm 0.00 in0.0 mm
04:10 AM 80.0°F26.7°C 28.0°F-2.2°C 15% 0.9 mph NNE1.4 kmh NNE 4.0 mph6.4 kmh 29.84 in1010.5 mb 0.00 in0.0 mm 0.00 in0.0 mm 0.00 in0.0 mm
04:20 AM 80.6°F27.0°C 30.0°F-1.1°C 16% 2.6 mph NE4.2 kmh NE 6.0 mph9.7 kmh 29.84 in1010.5 mb 0.00 in0.0 mm 0.00 in0.0 mm 0.00 in0.0 mm
04:30 AM 80.4°F26.9°C 30.0°F-1.1°C 16% 2.2 mph N3.5 kmh N 5.0 mph8.0 kmh 29.84 in1010.5 mb 0.00 in0.0 mm 0.00 in0.0 mm 0.00 in0.0 mm
04:40 AM 79.9°F26.6°C 31.0°F-0.6°C 17% 1.2 mph N1.9 kmh N 2.0 mph3.2 kmh 29.84 in1010.5 mb 0.00 in0.0 mm 0.00 in0.0 mm 0.00 in0.0 mm
04:50 AM 79.7°F26.5°C 30.0°F-1.1°C 16% 1.7 mph N2.7 kmh N 4.0 mph6.4 kmh 29.84 in1010.5 mb 0.00 in0.0 mm 0.00 in0.0 mm 0.00 in0.0 mm
05:00 AM 79.1°F26.2°C 31.0°F-0.6°C 17% 2.3 mph NNE3.7 kmh NNE 5.0 mph8.0 kmh 29.84 in1010.5 mb 0.00 in0.0 mm 0.00 in0.0 mm 0.00 in0.0 mm
05:10 AM 78.9°F26.1°C 30.0°F-1.1°C 17% 2.7 mph NNW4.3 kmh NNW 5.0 mph8.0 kmh 29.84 in1010.5 mb 0.00 in0.0 mm 0.00 in0.0 mm 0.00 in0.0 mm
05:20 AM 78.9°F26.1°C 30.0°F-1.1°C 17% 2.4 mph NNE3.9 kmh NNE 5.0 mph8.0 kmh 29.84 in1010.5 mb 0.00 in0.0 mm 0.00 in0.0 mm 0.00 in0.0 mm
05:30 AM 79.3°F26.3°C 28.0°F-2.2°C 15% 3.8 mph N6.1 kmh N 6.0 mph9.7 kmh 29.84 in1010.5 mb 0.00 in0.0 mm 0.00 in0.0 mm 0.00 in0.0 mm
05:40 AM 79.4°F26.3°C 29.0°F-1.7°C 16% 3.3 mph N5.3 kmh N 7.0 mph11.3 kmh 29.84 in1010.5 mb 0.00 in0.0 mm 0.00 in0.0 mm 0.00 in0.0 mm
05:50 AM 79.9°F26.6°C 30.0°F-1.1°C 16% 2.6 mph NNE4.2 kmh NNE 5.0 mph8.0 kmh 29.84 in1010.5 mb 0.00 in0.0 mm 0.00 in0.0 mm 0.00 in0.0 mm
06:00 AM 79.9°F26.6°C 33.0°F0.6°C 18% 0.3 mph N0.5 kmh N 3.0 mph4.8 kmh 29.84 in1010.5 mb 0.00 in0.0 mm 0.00 in0.0 mm 0.00 in0.0 mm
06:10 AM 81.2°F27.3°C 31.0°F-0.6°C 16% 0.4 mph NNE0.6 kmh NNE 1.0 mph1.6 kmh 29.84 in1010.5 mb 0.00 in0.0 mm 0.00 in0.0 mm 0.00 in0.0 mm
06:20 AM 82.6°F28.1°C 30.0°F-1.1°C 15% 2.5 mph NNE4.0 kmh NNE 5.0 mph8.0 kmh 29.84 in1010.5 mb 0.00 in0.0 mm 0.00 in0.0 mm 0.00 in0.0 mm
06:30 AM 83.7°F28.7°C 31.0°F-0.6°C 15% 1.8 mph N2.9 kmh N 4.0 mph6.4 kmh 29.84 in1010.5 mb 0.00 in0.0 mm 0.00 in0.0 mm 0.00 in0.0 mm
06:40 AM 84.7°F29.3°C 37.0°F2.8°C 18% 0.8 mph NNE1.3 kmh NNE 3.0 mph4.8 kmh 29.84 in1010.5 mb 0.00 in0.0 mm 0.00 in0.0 mm 0.00 in0.0 mm
06:50 AM 86.3°F30.2°C 33.0°F0.6°C 15% Calm Calm 1.0 mph1.6 kmh 29.84 in1010.5 mb 0.00 in0.0 mm 0.00 in0.0 mm 0.00 in0.0 mm
07:00 AM 88.5°F31.4°C 41.0°F5.0°C 19% 0.1 mph NNE0.2 kmh NNE 1.0 mph1.6 kmh 29.84 in1010.5 mb 0.00 in0.0 mm 0.00 in0.0 mm 0.00 in0.0 mm
07:10 AM 91.5°F33.1°C 38.0°F3.3°C 15% Calm Calm 1.0 mph1.6 kmh 29.84 in1010.5 mb 0.00 in0.0 mm 0.00 in0.0 mm 0.00 in0.0 mm
07:20 AM 91.9°F33.3°C 41.0°F5.0°C 17% 0.1 mph SE0.2 kmh SE 2.0 mph3.2 kmh 29.84 in1010.5 mb 0.00 in0.0 mm 0.00 in0.0 mm 0.00 in0.0 mm
07:30 AM 92.2°F33.4°C 43.0°F6.1°C 18% 0.7 mph S1.1 kmh S 3.0 mph4.8 kmh 29.84 in1010.5 mb 0.00 in0.0 mm 0.00 in0.0 mm 0.00 in0.0 mm
07:40 AM 91.9°F33.3°C 44.0°F6.7°C 19% 0.7 mph SE1.1 kmh SE 3.0 mph4.8 kmh 29.84 in1010.5 mb 0.00 in0.0 mm 0.00 in0.0 mm 0.00 in0.0 mm
07:50 AM 93.1°F33.9°C 41.0°F5.0°C 16% 0.3 mph S0.5 kmh S 3.0 mph4.8 kmh 29.84 in1010.5 mb 0.00 in0.0 mm 0.00 in0.0 mm 0.00 in0.0 mm
08:00 AM 92.8°F33.8°C 40.0°F4.4°C 16% 1.4 mph SSW2.3 kmh SSW 3.0 mph4.8 kmh 29.84 in1010.5 mb 0.00 in0.0 mm 0.00 in0.0 mm 0.00 in0.0 mm
08:10 AM 93.8°F34.3°C 41.0°F5.0°C 16% 1.2 mph S1.9 kmh S 4.0 mph6.4 kmh 29.84 in1010.5 mb 0.00 in0.0 mm 0.00 in0.0 mm 0.00 in0.0 mm
08:20 AM 93.5°F34.2°C 41.0°F5.0°C 16% 1.6 mph SE2.6 kmh SE 6.0 mph9.7 kmh 29.84 in1010.5 mb 0.00 in0.0 mm 0.00 in0.0 mm 0.00 in0.0 mm
08:30 AM 95.3°F35.2°C 41.0°F5.0°C 15% 0.9 mph SSE1.4 kmh SSE 3.0 mph4.8 kmh 29.84 in1010.5 mb 0.00 in0.0 mm 0.00 in0.0 mm 0.00 in0.0 mm
08:40 AM 94.6°F34.8°C 40.0°F4.4°C 15% 2.3 mph SE3.7 kmh SE 6.0 mph9.7 kmh 29.84 in1010.5 mb 0.00 in0.0 mm 0.00 in0.0 mm 0.00 in0.0 mm
08:50 AM 95.2°F35.1°C 41.0°F5.0°C 15% 2.0 mph SW3.2 kmh SW 6.0 mph9.7 kmh 29.84 in1010.5 mb 0.00 in0.0 mm 0.00 in0.0 mm 0.00 in0.0 mm
09:00 AM 95.9°F35.5°C 39.0°F3.9°C 14% 2.1 mph SE3.4 kmh SE 6.0 mph9.7 kmh 29.84 in1010.5 mb 0.00 in0.0 mm 0.00 in0.0 mm 0.00 in0.0 mm
09:10 AM 97.2°F36.2°C 39.0°F3.9°C 13% 2.3 mph S3.7 kmh S 5.0 mph8.0 kmh 29.84 in1010.5 mb 0.00 in0.0 mm 0.00 in0.0 mm 0.00 in0.0 mm
09:20 AM 97.7°F36.5°C 39.0°F3.9°C 13% 1.7 mph NNE2.7 kmh NNE 6.0 mph9.7 kmh 29.84 in1010.5 mb 0.00 in0.0 mm 0.00 in0.0 mm 0.00 in0.0 mm
09:30 AM 98.0°F36.7°C 39.0°F3.9°C 13% 1.6 mph SE2.6 kmh SE 7.0 mph11.3 kmh 29.84 in1010.5 mb 0.00 in0.0 mm 0.00 in0.0 mm 0.00 in0.0 mm
09:40 AM 96.6°F35.9°C 38.0°F3.3°C 13% 2.3 mph SE3.7 kmh SE 6.0 mph9.7 kmh 29.84 in1010.5 mb 0.00 in0.0 mm 0.00 in0.0 mm 0.00 in0.0 mm
09:50 AM 96.4°F35.8°C 40.0°F4.4°C 14% 2.1 mph SSE3.4 kmh SSE 6.0 mph9.7 kmh 29.84 in1010.5 mb 0.00 in0.0 mm 0.00 in0.0 mm 0.00 in0.0 mm
10:00 AM 96.6°F35.9°C 40.0°F4.4°C 14% 2.3 mph SW3.7 kmh SW 7.0 mph11.3 kmh 29.84 in1010.5 mb 0.00 in0.0 mm 0.00 in0.0 mm 0.00 in0.0 mm
10:10 AM 98.2°F36.8°C 40.0°F4.4°C 13% 3.4 mph SE5.5 kmh SE 7.0 mph11.3 kmh 29.84 in1010.5 mb 0.00 in0.0 mm 0.00 in0.0 mm 0.00 in0.0 mm
10:20 AM 98.4°F36.9°C 40.0°F4.4°C 13% 2.3 mph S3.7 kmh S 5.0 mph8.0 kmh 29.84 in1010.5 mb 0.00 in0.0 mm 0.00 in0.0 mm 0.00 in0.0 mm
10:30 AM 98.5°F36.9°C 40.0°F4.4°C 13% 1.3 mph SSW2.1 kmh SSW 7.0 mph11.3 kmh 29.84 in1010.5 mb 0.00 in0.0 mm 0.00 in0.0 mm 0.00 in0.0 mm
10:40 AM 98.0°F36.7°C 41.0°F5.0°C 14% 2.4 mph S3.9 kmh S 6.0 mph9.7 kmh 29.84 in1010.5 mb 0.00 in0.0 mm 0.00 in0.0 mm 0.00 in0.0 mm
10:50 AM 97.1°F36.2°C 40.0°F4.4°C 14% 2.4 mph SE3.9 kmh SE 5.0 mph8.0 kmh 29.84 in1010.5 mb 0.00 in0.0 mm 0.00 in0.0 mm 0.00 in0.0 mm
11:00 AM 97.1°F36.2°C 42.0°F5.6°C 15% 2.0 mph S3.2 kmh S 6.0 mph9.7 kmh 29.84 in1010.5 mb 0.00 in0.0 mm 0.00 in0.0 mm 0.00 in0.0 mm
11:10 AM 98.7°F37.1°C 40.0°F4.4°C 13% 3.1 mph WSW5.0 kmh WSW 8.0 mph12.9 kmh 29.84 in1010.5 mb 0.00 in0.0 mm 0.00 in0.0 mm 0.00 in0.0 mm
11:20 AM 99.2°F37.3°C 40.0°F4.4°C 13% 2.6 mph S4.2 kmh S 5.0 mph8.0 kmh 29.84 in1010.5 mb 0.00 in0.0 mm 0.00 in0.0 mm 0.00 in0.0 mm
11:30 AM 99.5°F37.5°C 41.0°F5.0°C 13% 2.4 mph S3.9 kmh S 7.0 mph11.3 kmh 29.84 in1010.5 mb 0.00 in0.0 mm 0.00 in0.0 mm 0.00 in0.0 mm
11:40 AM 99.7°F37.6°C 41.0°F5.0°C 13% 3.9 mph SSE6.3 kmh SSE 9.0 mph14.5 kmh 29.84 in1010.5 mb 0.00 in0.0 mm 0.00 in0.0 mm 0.00 in0.0 mm
11:50 AM 100.9°F38.3°C 42.0°F5.6°C 13% 2.9 mph SE4.7 kmh SE 7.0 mph11.3 kmh 29.84 in1010.5 mb 0.00 in0.0 mm 0.00 in0.0 mm 0.00 in0.0 mm
12:00 PM 100.6°F38.1°C 41.0°F5.0°C 13% 2.8 mph S4.5 kmh S 7.0 mph11.3 kmh 29.84 in1010.5 mb 0.00 in0.0 mm 0.00 in0.0 mm 0.00 in0.0 mm
12:10 PM 100.1°F37.8°C 39.0°F3.9°C 12% 3.3 mph SE5.3 kmh SE 8.0 mph12.9 kmh 29.84 in1010.5 mb 0.00 in0.0 mm 0.00 in0.0 mm 0.00 in0.0 mm
12:20 PM 99.7°F37.6°C 41.0°F5.0°C 13% 4.6 mph SSE7.4 kmh SSE 10.0 mph16.1 kmh 29.84 in1010.5 mb 0.00 in0.0 mm 0.00 in0.0 mm 0.00 in0.0 mm
12:30 PM 99.8°F37.7°C 39.0°F3.9°C 12% 3.9 mph SW6.3 kmh SW 8.0 mph12.9 kmh 29.84 in1010.5 mb 0.00 in0.0 mm 0.00 in0.0 mm 0.00 in0.0 mm
12:40 PM 99.6°F37.6°C 39.0°F3.9°C 12% 3.6 mph S5.8 kmh S 8.0 mph12.9 kmh 29.84 in1010.5 mb 0.00 in0.0 mm 0.00 in0.0 mm 0.00 in0.0 mm
12:50 PM 99.5°F37.5°C 41.0°F5.0°C 13% 3.4 mph WSW5.5 kmh WSW 9.0 mph14.5 kmh 29.84 in1010.5 mb 0.00 in0.0 mm 0.00 in0.0 mm 0.00 in0.0 mm
01:00 PM 99.2°F37.3°C 40.0°F4.4°C 13% 3.6 mph S5.8 kmh S 8.0 mph12.9 kmh 29.84 in1010.5 mb 0.00 in0.0 mm 0.00 in0.0 mm 0.00 in0.0 mm
01:10 PM 99.4°F37.4°C 38.0°F3.3°C 12% 2.0 mph SE3.2 kmh SE 6.0 mph9.7 kmh 29.84 in1010.5 mb 0.00 in0.0 mm 0.00 in0.0 mm 0.00 in0.0 mm
01:20 PM 99.4°F37.4°C 40.0°F4.4°C 13% 1.9 mph SE3.1 kmh SE 7.0 mph11.3 kmh 29.84 in1010.5 mb 0.00 in0.0 mm 0.00 in0.0 mm 0.00 in0.0 mm
01:30 PM 99.5°F37.5°C 41.0°F5.0°C 13% 2.6 mph SSW4.2 kmh SSW 6.0 mph9.7 kmh 29.84 in1010.5 mb 0.00 in0.0 mm 0.00 in0.0 mm 0.00 in0.0 mm
01:40 PM 99.1°F37.3°C 40.0°F4.4°C 13% 2.6 mph S4.2 kmh S 6.0 mph9.7 kmh 29.84 in1010.5 mb 0.00 in0.0 mm 0.00 in0.0 mm 0.00 in0.0 mm
01:50 PM 98.9°F37.2°C 40.0°F4.4°C 13% 2.1 mph SW3.4 kmh SW 5.0 mph8.0 kmh 29.84 in1010.5 mb 0.00 in0.0 mm 0.00 in0.0 mm 0.00 in0.0 mm
02:00 PM 99.0°F37.2°C 40.0°F4.4°C 13% 1.9 mph S3.1 kmh S 5.0 mph8.0 kmh 29.84 in1010.5 mb 0.00 in0.0 mm 0.00 in0.0 mm 0.00 in0.0 mm
02:10 PM 98.9°F37.2°C 42.0°F5.6°C 14% 1.8 mph SE2.9 kmh SE 5.0 mph8.0 kmh 29.84 in1010.5 mb 0.00 in0.0 mm 0.00 in0.0 mm 0.00 in0.0 mm
02:20 PM 98.9°F37.2°C 40.0°F4.4°C 13% 2.0 mph SSE3.2 kmh SSE 7.0 mph11.3 kmh 29.84 in1010.5 mb 0.00 in0.0 mm 0.00 in0.0 mm 0.00 in0.0 mm
02:30 PM 98.7°F37.1°C 40.0°F4.4°C 13% 1.9 mph SSW3.1 kmh SSW 7.0 mph11.3 kmh 29.84 in1010.5 mb 0.00 in0.0 mm 0.00 in0.0 mm 0.00 in0.0 mm
02:40 PM 98.6°F37.0°C 40.0°F4.4°C 13% 2.3 mph SE3.7 kmh SE 6.0 mph9.7 kmh 29.84 in1010.5 mb 0.00 in0.0 mm 0.00 in0.0 mm 0.00 in0.0 mm
02:50 PM 99.4°F37.4°C 42.0°F5.6°C 14% 1.0 mph SW1.6 kmh SW 3.0 mph4.8 kmh 29.84 in1010.5 mb 0.00 in0.0 mm 0.00 in0.0 mm 0.00 in0.0 mm
03:00 PM 100.5°F38.1°C 41.0°F5.0°C 13% 0.9 mph N1.4 kmh N 4.0 mph6.4 kmh 29.84 in1010.5 mb 0.00 in0.0 mm 0.00 in0.0 mm 0.00 in0.0 mm
03:10 PM 100.3°F37.9°C 39.0°F3.9°C 12% 1.5 mph SSW2.4 kmh SSW 4.0 mph6.4 kmh 29.84 in1010.5 mb 0.00 in0.0 mm 0.00 in0.0 mm 0.00 in0.0 mm
03:20 PM 100.0°F37.8°C 39.0°F3.9°C 12% 1.6 mph S2.6 kmh S 5.0 mph8.0 kmh 29.84 in1010.5 mb 0.00 in0.0 mm 0.00 in0.0 mm 0.00 in0.0 mm
03:30 PM 100.1°F37.8°C 41.0°F5.0°C 13% 0.1 mph SSW0.2 kmh SSW 1.0 mph1.6 kmh 29.84 in1010.5 mb 0.00 in0.0 mm 0.00 in0.0 mm 0.00 in0.0 mm
03:40 PM 100.4°F38.0°C 41.0°F5.0°C 13% 0.4 mph SE0.6 kmh SE 3.0 mph4.8 kmh 29.84 in1010.5 mb 0.00 in0.0 mm 0.00 in0.0 mm 0.00 in0.0 mm
03:50 PM 100.7°F38.2°C 39.0°F3.9°C 12% 0.1 mph W0.2 kmh W 2.0 mph3.2 kmh 29.84 in1010.5 mb 0.00 in0.0 mm 0.00 in0.0 mm 0.00 in0.0 mm
04:00 PM 100.9°F38.3°C 40.0°F4.4°C 12% 1.3 mph SW2.1 kmh SW 5.0 mph8.0 kmh 29.84 in1010.5 mb 0.00 in0.0 mm 0.00 in0.0 mm 0.00 in0.0 mm
04:10 PM 101.1°F38.4°C 38.0°F3.3°C 11% 1.0 mph SE1.6 kmh SE 3.0 mph4.8 kmh 29.84 in1010.5 mb 0.00 in0.0 mm 0.00 in0.0 mm 0.00 in0.0 mm
04:20 PM 101.9°F38.8°C 38.0°F3.3°C 11% 0.5 mph SSE0.8 kmh SSE 3.0 mph4.8 kmh 29.84 in1010.5 mb 0.00 in0.0 mm 0.00 in0.0 mm 0.00 in0.0 mm
04:30 PM 102.0°F38.9°C 38.0°F3.3°C 11% 1.8 mph SE2.9 kmh SE 6.0 mph9.7 kmh 29.84 in1010.5 mb 0.00 in0.0 mm 0.00 in0.0 mm 0.00 in0.0 mm
04:40 PM 101.6°F38.7°C 40.0°F4.4°C 12% 0.4 mph NE0.6 kmh NE 3.0 mph4.8 kmh 29.84 in1010.5 mb 0.00 in0.0 mm 0.00 in0.0 mm 0.00 in0.0 mm
04:50 PM 102.3°F39.1°C 36.0°F2.2°C 10% 1.5 mph SE2.4 kmh SE 6.0 mph9.7 kmh 29.84 in1010.5 mb 0.00 in0.0 mm 0.00 in0.0 mm 0.00 in0.0 mm
05:00 PM 102.3°F39.1°C 36.0°F2.2°C 10% 2.1 mph SE3.4 kmh SE 6.0 mph9.7 kmh 29.84 in1010.5 mb 0.00 in0.0 mm 0.00 in0.0 mm 0.00 in0.0 mm
05:10 PM 102.4°F39.1°C 39.0°F3.9°C 11% 1.4 mph SSE2.3 kmh SSE 4.0 mph6.4 kmh 29.84 in1010.5 mb 0.00 in0.0 mm 0.00 in0.0 mm 0.00 in0.0 mm
05:20 PM 102.3°F39.1°C 36.0°F2.2°C 10% 2.3 mph SW3.7 kmh SW 6.0 mph9.7 kmh 29.84 in1010.5 mb 0.00 in0.0 mm 0.00 in0.0 mm 0.00 in0.0 mm
05:30 PM 101.9°F38.8°C 36.0°F2.2°C 10% 2.6 mph SW4.2 kmh SW 7.0 mph11.3 kmh 29.84 in1010.5 mb 0.00 in0.0 mm 0.00 in0.0 mm 0.00 in0.0 mm
05:40 PM 101.8°F38.8°C 36.0°F2.2°C 10% 1.9 mph SE3.1 kmh SE 5.0 mph8.0 kmh 29.84 in1010.5 mb 0.00 in0.0 mm 0.00 in0.0 mm 0.00 in0.0 mm
05:50 PM 101.9°F38.8°C 36.0°F2.2°C 10% 2.5 mph S4.0 kmh S 6.0 mph9.7 kmh 29.84 in1010.5 mb 0.00 in0.0 mm 0.00 in0.0 mm 0.00 in0.0 mm
06:00 PM 102.2°F39.0°C 36.0°F2.2°C 10% 2.6 mph S4.2 kmh S 9.0 mph14.5 kmh 29.84 in1010.5 mb 0.00 in0.0 mm 0.00 in0.0 mm 0.00 in0.0 mm
06:10 PM 102.0°F38.9°C 33.0°F0.6°C 9% 1.2 mph S1.9 kmh S 6.0 mph9.7 kmh 29.84 in1010.5 mb 0.00 in0.0 mm 0.00 in0.0 mm 0.00 in0.0 mm
06:20 PM 101.9°F38.8°C 36.0°F2.2°C 10% 2.0 mph S3.2 kmh S 5.0 mph8.0 kmh 29.84 in1010.5 mb 0.00 in0.0 mm 0.00 in0.0 mm 0.00 in0.0 mm
06:30 PM 101.7°F38.7°C 33.0°F0.6°C 9% 3.4 mph SW5.5 kmh SW 9.0 mph14.5 kmh 29.84 in1010.5 mb 0.00 in0.0 mm 0.00 in0.0 mm 0.00 in0.0 mm
06:40 PM 101.6°F38.7°C 36.0°F2.2°C 10% 2.3 mph SW3.7 kmh SW 5.0 mph8.0 kmh 29.84 in1010.5 mb 0.00 in0.0 mm 0.00 in0.0 mm 0.00 in0.0 mm
06:50 PM 101.3°F38.5°C 35.0°F1.7°C 10% 2.7 mph SSW4.3 kmh SSW 7.0 mph11.3 kmh 29.84 in1010.5 mb 0.00 in0.0 mm 0.00 in0.0 mm 0.00 in0.0 mm
07:00 PM 101.1°F38.4°C 35.0°F1.7°C 10% 2.1 mph SW3.4 kmh SW 7.0 mph11.3 kmh 29.84 in1010.5 mb 0.00 in0.0 mm 0.00 in0.0 mm 0.00 in0.0 mm
07:10 PM 100.7°F38.2°C 35.0°F1.7°C 10% 2.8 mph SW4.5 kmh SW 7.0 mph11.3 kmh 29.84 in1010.5 mb 0.00 in0.0 mm 0.00 in0.0 mm 0.00 in0.0 mm
07:20 PM 100.3°F37.9°C 35.0°F1.7°C 10% 2.2 mph SW3.5 kmh SW 6.0 mph9.7 kmh 29.84 in1010.5 mb 0.00 in0.0 mm 0.00 in0.0 mm 0.00 in0.0 mm
07:30 PM 99.8°F37.7°C 34.0°F1.1°C 10% 2.2 mph SW3.5 kmh SW 6.0 mph9.7 kmh 29.84 in1010.5 mb 0.00 in0.0 mm 0.00 in0.0 mm 0.00 in0.0 mm
07:40 PM 99.2°F37.3°C 34.0°F1.1°C 10% 3.2 mph SSW5.1 kmh SSW 7.0 mph11.3 kmh 29.84 in1010.5 mb 0.00 in0.0 mm 0.00 in0.0 mm 0.00 in0.0 mm
07:50 PM 98.6°F37.0°C 33.0°F0.6°C 10% 3.9 mph SSW6.3 kmh SSW 8.0 mph12.9 kmh 29.84 in1010.5 mb 0.00 in0.0 mm 0.00 in0.0 mm 0.00 in0.0 mm
08:00 PM 98.0°F36.7°C 33.0°F0.6°C 10% 2.7 mph S4.3 kmh S 8.0 mph12.9 kmh 29.84 in1010.5 mb 0.00 in0.0 mm 0.00 in0.0 mm 0.00 in0.0 mm
08:10 PM 97.9°F36.6°C 27.0°F-2.8°C 8% 4.8 mph SSE7.7 kmh SSE 12.0 mph19.3 kmh 29.84 in1010.5 mb 0.00 in0.0 mm 0.00 in0.0 mm 0.00 in0.0 mm
08:20 PM 97.6°F36.4°C 24.0°F-4.4°C 7% 5.8 mph WSW9.3 kmh WSW 14.0 mph22.5 kmh 29.84 in1010.5 mb 0.00 in0.0 mm 0.00 in0.0 mm 0.00 in0.0 mm
08:30 PM 97.2°F36.2°C 20.0°F-6.7°C 6% 5.5 mph SW8.9 kmh SW 12.0 mph19.3 kmh 29.84 in1010.5 mb 0.00 in0.0 mm 0.00 in0.0 mm 0.00 in0.0 mm
08:40 PM 96.6°F35.9°C 19.0°F-7.2°C 6% 5.6 mph S9.0 kmh S 13.0 mph20.9 kmh 29.84 in1010.5 mb 0.00 in0.0 mm 0.00 in0.0 mm 0.00 in0.0 mm
08:50 PM 96.1°F35.6°C 15.0°F-9.4°C 5% 4.3 mph SW6.9 kmh SW 9.0 mph14.5 kmh 29.84 in1010.5 mb 0.00 in0.0 mm 0.00 in0.0 mm 0.00 in0.0 mm
09:00 PM 95.5°F35.3°C 14.0°F-10.0°C 5% 4.0 mph WSW6.4 kmh WSW 9.0 mph14.5 kmh 29.84 in1010.5 mb 0.00 in0.0 mm 0.00 in0.0 mm 0.00 in0.0 mm
09:10 PM 95.0°F35.0°C 14.0°F-10.0°C 5% 4.4 mph SW7.1 kmh SW 9.0 mph14.5 kmh 29.84 in1010.5 mb 0.00 in0.0 mm 0.00 in0.0 mm 0.00 in0.0 mm
09:20 PM 94.5°F34.7°C 14.0°F-10.0°C 5% 3.0 mph SW4.8 kmh SW 7.0 mph11.3 kmh 29.84 in1010.5 mb 0.00 in0.0 mm 0.00 in0.0 mm 0.00 in0.0 mm
09:30 PM 93.7°F34.3°C 17.0°F-8.3°C 6% 2.4 mph SSW3.9 kmh SSW 7.0 mph11.3 kmh 29.84 in1010.5 mb 0.00 in0.0 mm 0.00 in0.0 mm 0.00 in0.0 mm
09:40 PM 93.2°F34.0°C 17.0°F-8.3°C 6% 2.3 mph SW3.7 kmh SW 7.0 mph11.3 kmh 29.84 in1010.5 mb 0.00 in0.0 mm 0.00 in0.0 mm 0.00 in0.0 mm
09:50 PM 92.7°F33.7°C 20.0°F-6.7°C 7% 1.9 mph WSW3.1 kmh WSW 6.0 mph9.7 kmh 29.84 in1010.5 mb 0.00 in0.0 mm 0.00 in0.0 mm 0.00 in0.0 mm
10:00 PM 92.1°F33.4°C 23.0°F-5.0°C 8% 2.3 mph SW3.7 kmh SW 7.0 mph11.3 kmh 29.84 in1010.5 mb 0.00 in0.0 mm 0.00 in0.0 mm 0.00 in0.0 mm
10:10 PM 91.6°F33.1°C 25.0°F-3.9°C 9% 2.0 mph SSW3.2 kmh SSW 5.0 mph8.0 kmh 29.84 in1010.5 mb 0.00 in0.0 mm 0.00 in0.0 mm 0.00 in0.0 mm
10:20 PM 91.1°F32.8°C 27.0°F-2.8°C 10% 2.1 mph SW3.4 kmh SW 6.0 mph9.7 kmh 29.84 in1010.5 mb 0.00 in0.0 mm 0.00 in0.0 mm 0.00 in0.0 mm
10:30 PM 90.3°F32.4°C 29.0°F-1.7°C 11% 2.0 mph SW3.2 kmh SW 5.0 mph8.0 kmh 29.84 in1010.5 mb 0.00 in0.0 mm 0.00 in0.0 mm 0.00 in0.0 mm
10:40 PM 89.6°F32.0°C 31.0°F-0.6°C 12% 1.5 mph SW2.4 kmh SW 3.0 mph4.8 kmh 29.84 in1010.5 mb 0.00 in0.0 mm 0.00 in0.0 mm 0.00 in0.0 mm
10:50 PM 88.6°F31.4°C 30.0°F-1.1°C 12% 0.4 mph S0.6 kmh S 3.0 mph4.8 kmh 29.84 in1010.5 mb 0.00 in0.0 mm 0.00 in0.0 mm 0.00 in0.0 mm
11:00 PM 87.5°F30.8°C 31.0°F-0.6°C 13% 0.9 mph S1.4 kmh S 2.0 mph3.2 kmh 29.84 in1010.5 mb 0.00 in0.0 mm 0.00 in0.0 mm 0.00 in0.0 mm
11:10 PM 86.9°F30.5°C 32.0°F0.0°C 14% 1.3 mph SE2.1 kmh SE 4.0 mph6.4 kmh 29.84 in1010.5 mb 0.00 in0.0 mm 0.00 in0.0 mm 0.00 in0.0 mm
11:20 PM 86.6°F30.3°C 34.0°F1.1°C 15% 1.3 mph SSE2.1 kmh SSE 2.0 mph3.2 kmh 29.84 in1010.5 mb 0.00 in0.0 mm 0.00 in0.0 mm 0.00 in0.0 mm
11:30 PM 86.2°F30.1°C 33.0°F0.6°C 15% 1.4 mph SE2.3 kmh SE 3.0 mph4.8 kmh 29.84 in1010.5 mb 0.00 in0.0 mm 0.00 in0.0 mm 0.00 in0.0 mm
11:40 PM 85.5°F29.7°C 34.0°F1.1°C 16% 0.8 mph SE1.3 kmh SE 2.0 mph3.2 kmh 29.84 in1010.5 mb 0.00 in0.0 mm 0.00 in0.0 mm 0.00 in0.0 mm
11:50 PM 84.7°F29.3°C 34.0°F1.1°C 16% 0.3 mph SE0.5 kmh SE 2.0 mph3.2 kmh 29.84 in1010.5 mb 0.00 in0.0 mm 0.00 in0.0 mm 0.00 in0.0 mm